createdAt,value
2019-02-11T00:04:37.376Z,6.20
2019-02-11T00:09:51.933Z,6.10
2019-02-11T00:15:06.511Z,6.10
2019-02-11T00:20:20.968Z,6.10
2019-02-11T00:25:35.595Z,6.10
2019-02-11T00:30:50.179Z,6.10
2019-02-11T00:36:04.675Z,6.00
2019-02-11T00:41:19.117Z,6.00
2019-02-11T00:46:33.434Z,6.00
2019-02-11T00:51:47.977Z,6.00
2019-02-11T00:57:02.817Z,5.90
2019-02-11T01:02:17.168Z,5.90
2019-02-11T01:07:31.901Z,5.90
2019-02-11T01:12:46.540Z,5.90
2019-02-11T01:18:00.689Z,5.90
2019-02-11T01:23:15.165Z,5.90
2019-02-11T01:28:29.523Z,5.80
2019-02-11T01:33:43.950Z,5.80
2019-02-11T01:38:58.691Z,5.80
2019-02-11T01:44:12.674Z,5.80
2019-02-11T01:49:27.254Z,5.80
2019-02-11T01:54:41.914Z,5.70
2019-02-11T01:59:56.430Z,5.70
2019-02-11T02:05:10.414Z,5.70
2019-02-11T02:10:25.114Z,5.70
2019-02-11T02:15:39.869Z,5.60
2019-02-11T02:20:54.763Z,5.60
2019-02-11T02:26:08.931Z,5.60
2019-02-11T02:31:23.437Z,5.60
2019-02-11T02:36:40.166Z,5.60
2019-02-11T02:41:54.730Z,5.60
2019-02-11T02:47:09.310Z,5.50
2019-02-11T02:52:23.770Z,5.50
2019-02-11T02:57:38.274Z,5.50
2019-02-11T03:02:52.760Z,5.50
2019-02-11T03:08:07.347Z,5.50
2019-02-11T03:13:21.568Z,5.50
2019-02-11T03:18:36.157Z,5.50
2019-02-11T03:23:50.551Z,5.40
2019-02-11T03:29:04.862Z,5.40
2019-02-11T03:34:19.503Z,5.40
2019-02-11T03:39:34.145Z,5.40
2019-02-11T03:44:48.659Z,5.40
2019-02-11T03:50:02.859Z,5.40
2019-02-11T03:55:17.634Z,5.30
2019-02-11T04:00:32.327Z,5.30
2019-02-11T04:05:46.718Z,5.30
2019-02-11T04:11:01.240Z,5.30
2019-02-11T04:16:16.043Z,5.20
2019-02-11T04:21:30.833Z,5.20
2019-02-11T04:26:44.939Z,5.20
2019-02-11T04:32:02.525Z,5.20
2019-02-11T04:37:17.175Z,5.20
2019-02-11T04:42:31.663Z,5.20
2019-02-11T04:47:46.407Z,5.10
2019-02-11T04:53:01.089Z,5.10
2019-02-11T04:58:15.619Z,5.10
2019-02-11T05:03:30.201Z,5.10
2019-02-11T05:08:44.495Z,5.10
2019-02-11T05:13:59.006Z,5.00
2019-02-11T05:19:13.478Z,5.00
2019-02-11T05:24:28.212Z,5.00
2019-02-11T05:29:42.862Z,5.00
2019-02-11T05:34:56.924Z,5.00
2019-02-11T05:40:12.107Z,5.00
2019-02-11T05:45:26.421Z,4.90
2019-02-11T05:50:41.106Z,4.90
2019-02-11T05:55:56.927Z,4.90
2019-02-11T06:01:11.665Z,4.90
2019-02-11T06:06:27.329Z,4.90
2019-02-11T06:11:41.914Z,4.90
2019-02-11T06:16:56.293Z,4.90
2019-02-11T06:22:10.900Z,4.80
2019-02-11T06:27:25.402Z,4.80
2019-02-11T06:32:39.761Z,4.80
2019-02-11T06:37:54.545Z,4.80
2019-02-11T06:43:09.223Z,4.80
2019-02-11T06:48:23.896Z,4.80
2019-02-11T06:53:38.555Z,4.80
2019-02-11T06:58:53.256Z,4.70
2019-02-11T07:04:07.326Z,4.80
2019-02-11T07:09:21.852Z,4.70
2019-02-11T07:14:36.008Z,4.70
2019-02-11T07:19:52.501Z,4.80
2019-02-11T07:25:07.517Z,4.70
2019-02-11T07:30:22.039Z,4.70
2019-02-11T07:35:36.471Z,4.70
2019-02-11T07:40:51.339Z,4.70
2019-02-11T07:46:16.996Z,4.70
2019-02-11T07:51:31.520Z,4.70
2019-02-11T07:56:47.623Z,4.70
2019-02-11T08:02:02.078Z,4.60
2019-02-11T08:07:16.685Z,4.60
2019-02-11T08:12:31.328Z,4.60
2019-02-11T08:17:46.831Z,4.60
2019-02-11T08:23:01.755Z,4.60
2019-02-11T08:28:19.479Z,4.60
2019-02-11T08:33:32.519Z,4.60
2019-02-11T08:38:47.042Z,4.60
2019-02-11T08:44:02.661Z,4.60
2019-02-11T08:49:17.006Z,4.50
2019-02-11T08:54:31.694Z,4.50
2019-02-11T08:59:46.050Z,4.50
2019-02-11T09:05:00.657Z,4.50
2019-02-11T09:10:15.655Z,4.60
2019-02-11T09:15:30.044Z,4.50
2019-02-11T09:20:44.405Z,4.50
2019-02-11T09:25:59.022Z,4.50
2019-02-11T09:31:13.418Z,4.60
2019-02-11T09:36:36.941Z,4.50
2019-02-11T09:41:51.377Z,4.50
2019-02-11T09:47:06.055Z,4.50
2019-02-11T09:52:20.386Z,4.50
2019-02-11T09:57:34.544Z,4.50
2019-02-11T10:02:49.141Z,4.50
2019-02-11T10:08:04.129Z,4.50
2019-02-11T10:13:18.496Z,4.60
2019-02-11T10:18:33.134Z,4.50
2019-02-11T10:23:47.544Z,4.50
2019-02-11T10:29:02.150Z,4.50
2019-02-11T10:34:16.726Z,4.60
2019-02-11T10:39:31.033Z,4.60
2019-02-11T10:44:45.345Z,4.60
2019-02-11T10:49:59.804Z,4.60
2019-02-11T10:55:15.408Z,4.60
2019-02-11T11:00:29.778Z,4.60
2019-02-11T11:05:44.172Z,4.60
2019-02-11T11:10:58.275Z,4.60
2019-02-11T11:16:12.747Z,4.70
2019-02-11T11:21:27.431Z,4.60
2019-02-11T11:26:42.076Z,4.70
2019-02-11T11:31:56.601Z,4.70
2019-02-11T11:37:11.056Z,4.70
2019-02-11T11:42:25.558Z,4.70
2019-02-11T11:47:40.123Z,4.70
2019-02-11T11:52:54.620Z,4.70
2019-02-11T11:58:09.191Z,4.80
2019-02-11T12:03:23.915Z,4.80
2019-02-11T12:08:38.543Z,4.80
2019-02-11T12:13:53.204Z,4.80
2019-02-11T12:19:07.867Z,4.80
2019-02-11T12:24:22.522Z,4.80
2019-02-11T12:29:37.114Z,4.80
2019-02-11T12:34:51.653Z,4.80
2019-02-11T12:40:06.090Z,4.80
2019-02-11T12:45:22.044Z,4.80
2019-02-11T12:50:36.538Z,4.80
2019-02-11T12:55:51.189Z,4.90
2019-02-11T13:01:06.183Z,4.90
2019-02-11T13:06:21.003Z,4.90
2019-02-11T13:11:35.673Z,4.90
2019-02-11T13:16:50.437Z,4.90
2019-02-11T13:22:04.737Z,5.00
2019-02-11T13:27:19.122Z,5.00
2019-02-11T13:32:33.561Z,5.00
2019-02-11T13:37:48.143Z,5.10
2019-02-11T13:43:02.446Z,5.10
2019-02-11T13:48:17.871Z,5.20
2019-02-11T13:53:32.586Z,5.20
2019-02-11T13:58:51.808Z,5.20
2019-02-11T14:04:03.470Z,5.30
2019-02-11T14:09:17.983Z,5.30
2019-02-11T14:14:32.180Z,5.40
2019-02-11T14:19:46.517Z,5.40
2019-02-11T14:25:01.232Z,5.50
2019-02-11T14:30:16.417Z,5.50
2019-02-11T14:35:31.199Z,5.50
2019-02-11T14:40:48.231Z,5.50
2019-02-11T14:46:02.994Z,5.50
2019-02-11T14:51:17.638Z,5.50
2019-02-11T14:56:33.518Z,5.50
2019-02-11T15:01:48.190Z,5.60
2019-02-11T15:07:02.684Z,5.60
2019-02-11T15:12:16.842Z,5.60
2019-02-11T15:17:31.298Z,5.60
2019-02-11T15:22:47.538Z,5.50
2019-02-11T15:28:02.183Z,5.50
2019-02-11T15:33:16.893Z,5.60
2019-02-11T15:38:31.634Z,5.60
2019-02-11T15:43:46.449Z,5.70
2019-02-11T15:49:00.838Z,5.80
2019-02-11T15:54:15.395Z,5.80
2019-02-11T15:59:29.953Z,5.90
2019-02-11T16:04:44.043Z,5.90
2019-02-11T16:09:58.948Z,6.00
2019-02-11T16:15:16.100Z,6.00
2019-02-11T16:20:30.161Z,6.10
2019-02-11T16:25:44.887Z,6.10
2019-02-11T16:30:59.541Z,6.10
2019-02-11T16:36:14.202Z,6.10
2019-02-11T16:41:29.091Z,6.10
2019-02-11T16:46:43.988Z,6.10
2019-02-11T16:51:58.502Z,6.10
2019-02-11T16:57:13.187Z,6.10
2019-02-11T17:02:28.002Z,6.10
2019-02-11T17:07:42.894Z,6.10
2019-02-11T17:12:57.336Z,6.10
2019-02-11T17:18:11.948Z,6.10
2019-02-11T17:23:26.823Z,6.10
2019-02-11T17:28:43.770Z,6.00
2019-02-11T17:33:58.687Z,6.00
2019-02-11T17:39:13.500Z,6.00
2019-02-11T17:44:27.980Z,6.00
2019-02-11T17:49:42.324Z,6.00
2019-02-11T17:54:56.892Z,6.00
2019-02-11T18:00:19.820Z,6.00
2019-02-11T18:05:34.513Z,5.90
2019-02-11T20:41:59.654Z,5.60
2019-02-11T20:58:21.649Z,5.50
2019-02-11T21:03:38.916Z,5.50
2019-02-11T21:08:54.066Z,5.50
2019-02-11T21:14:08.692Z,5.40
2019-02-11T21:19:23.329Z,5.40
2019-02-11T21:24:37.980Z,5.40
2019-02-11T21:29:52.803Z,5.40
2019-02-11T21:35:08.104Z,5.40
2019-02-11T21:40:22.839Z,5.30
2019-02-11T21:45:37.191Z,5.30
2019-02-11T21:50:52.043Z,5.30
2019-02-11T21:56:09.337Z,5.20
2019-02-11T22:01:24.203Z,5.20
2019-02-11T22:06:38.989Z,5.20
2019-02-11T22:11:53.583Z,5.20
2019-02-11T22:17:08.175Z,5.10
2019-02-11T22:22:22.951Z,5.10
2019-02-11T22:27:37.783Z,5.10
2019-02-11T22:32:53.382Z,5.00
2019-02-11T22:38:08.031Z,5.00
2019-02-11T22:43:22.671Z,5.00
2019-02-11T22:48:37.551Z,4.90
2019-02-11T22:53:51.964Z,4.90
2019-02-11T22:59:06.872Z,4.90
2019-02-11T23:04:23.966Z,4.80
2019-02-11T23:09:40.313Z,4.80
2019-02-11T23:14:59.621Z,4.80
2019-02-11T23:20:14.809Z,4.80
2019-02-11T23:25:30.714Z,4.70
2019-02-11T23:30:47.168Z,4.70
2019-02-11T23:36:01.578Z,4.70
2019-02-11T23:41:15.773Z,4.70
2019-02-11T23:46:30.452Z,4.60
2019-02-11T23:51:44.595Z,4.60
2019-02-11T23:56:59.163Z,4.60
